sensor_id;sensor_type;location;lat;lon;timestamp;P1;durP1;ratioP1;P2;durP2;ratioP2
38117;SDS011;23928;47.562;7.508;2022-11-20T00:01:40;3.43;;;2.03;;
38117;SDS011;23928;47.562;7.508;2022-11-20T00:04:06;3.23;;;1.90;;
38117;SDS011;23928;47.562;7.508;2022-11-20T00:06:31;2.23;;;1.90;;
38117;SDS011;23928;47.562;7.508;2022-11-20T00:08:58;3.03;;;1.87;;
38117;SDS011;23928;47.562;7.508;2022-11-20T00:11:25;3.63;;;2.10;;
38117;SDS011;23928;47.562;7.508;2022-11-20T00:13:53;2.73;;;1.93;;
38117;SDS011;23928;47.562;7.508;2022-11-20T00:16:22;2.80;;;1.70;;
38117;SDS011;23928;47.562;7.508;2022-11-20T00:18:50;2.33;;;1.97;;
38117;SDS011;23928;47.562;7.508;2022-11-20T00:21:20;2.97;;;1.53;;
38117;SDS011;23928;47.562;7.508;2022-11-20T00:23:47;2.73;;;1.70;;
38117;SDS011;23928;47.562;7.508;2022-11-20T00:26:14;2.83;;;1.40;;
38117;SDS011;23928;47.562;7.508;2022-11-20T00:28:42;2.60;;;1.77;;
38117;SDS011;23928;47.562;7.508;2022-11-20T00:33:39;5.20;;;2.50;;
38117;SDS011;23928;47.562;7.508;2022-11-20T00:36:09;4.23;;;1.50;;
38117;SDS011;23928;47.562;7.508;2022-11-20T00:38:36;2.00;;;1.53;;
38117;SDS011;23928;47.562;7.508;2022-11-20T00:41:06;2.93;;;1.60;;
38117;SDS011;23928;47.562;7.508;2022-11-20T00:43:33;5.63;;;2.30;;
38117;SDS011;23928;47.562;7.508;2022-11-20T00:46:03;2.00;;;1.80;;
38117;SDS011;23928;47.562;7.508;2022-11-20T00:48:31;2.23;;;1.73;;
38117;SDS011;23928;47.562;7.508;2022-11-20T00:50:57;4.07;;;2.17;;
38117;SDS011;23928;47.562;7.508;2022-11-20T00:53:23;3.37;;;1.50;;
38117;SDS011;23928;47.562;7.508;2022-11-20T00:55:53;1.60;;;1.43;;
38117;SDS011;23928;47.562;7.508;2022-11-20T00:58:20;1.47;;;1.23;;
38117;SDS011;23928;47.562;7.508;2022-11-20T01:00:46;2.53;;;1.30;;
38117;SDS011;23928;47.562;7.508;2022-11-20T01:03:11;2.70;;;1.47;;
38117;SDS011;23928;47.562;7.508;2022-11-20T01:05:37;1.50;;;1.17;;
38117;SDS011;23928;47.562;7.508;2022-11-20T01:08:02;1.30;;;1.20;;
38117;SDS011;23928;47.562;7.508;2022-11-20T01:10:28;1.90;;;1.50;;
38117;SDS011;23928;47.562;7.508;2022-11-20T01:12:54;2.57;;;1.50;;
38117;SDS011;23928;47.562;7.508;2022-11-20T01:15:38;2.27;;;1.40;;
38117;SDS011;23928;47.562;7.508;2022-11-20T01:18:04;1.30;;;1.20;;
38117;SDS011;23928;47.562;7.508;2022-11-20T01:20:30;2.17;;;1.50;;
38117;SDS011;23928;47.562;7.508;2022-11-20T01:22:59;2.90;;;1.63;;
38117;SDS011;23928;47.562;7.508;2022-11-20T01:25:24;2.27;;;1.40;;
38117;SDS011;23928;47.562;7.508;2022-11-20T01:27:50;1.63;;;1.20;;
38117;SDS011;23928;47.562;7.508;2022-11-20T01:30:16;1.67;;;1.43;;
38117;SDS011;23928;47.562;7.508;2022-11-20T01:32:41;4.37;;;1.77;;
38117;SDS011;23928;47.562;7.508;2022-11-20T01:35:07;1.47;;;1.37;;
38117;SDS011;23928;47.562;7.508;2022-11-20T01:37:34;1.20;;;1.13;;
38117;SDS011;23928;47.562;7.508;2022-11-20T01:40:00;3.47;;;1.33;;
38117;SDS011;23928;47.562;7.508;2022-11-20T01:42:25;1.30;;;1.03;;
38117;SDS011;23928;47.562;7.508;2022-11-20T01:45:57;3.20;;;1.17;;
38117;SDS011;23928;47.562;7.508;2022-11-20T01:48:11;1.50;;;1.17;;
38117;SDS011;23928;47.562;7.508;2022-11-20T01:50:37;1.73;;;1.30;;
38117;SDS011;23928;47.562;7.508;2022-11-20T01:53:07;1.63;;;1.07;;
38117;SDS011;23928;47.562;7.508;2022-11-20T01:55:39;2.23;;;1.20;;
38117;SDS011;23928;47.562;7.508;2022-11-20T01:58:08;2.00;;;1.27;;
38117;SDS011;23928;47.562;7.508;2022-11-20T02:00:34;2.67;;;1.30;;
38117;SDS011;23928;47.562;7.508;2022-11-20T02:03:01;1.50;;;1.40;;
38117;SDS011;23928;47.562;7.508;2022-11-20T02:05:35;1.60;;;1.30;;
38117;SDS011;23928;47.562;7.508;2022-11-20T02:08:15;3.43;;;1.60;;
38117;SDS011;23928;47.562;7.508;2022-11-20T02:10:42;2.90;;;1.60;;
38117;SDS011;23928;47.562;7.508;2022-11-20T02:13:07;2.90;;;1.57;;
38117;SDS011;23928;47.562;7.508;2022-11-20T02:15:52;1.60;;;1.50;;
38117;SDS011;23928;47.562;7.508;2022-11-20T02:18:18;3.87;;;1.40;;
38117;SDS011;23928;47.562;7.508;2022-11-20T02:20:45;1.60;;;1.43;;
38117;SDS011;23928;47.562;7.508;2022-11-20T02:25:53;2.13;;;1.50;;
38117;SDS011;23928;47.562;7.508;2022-11-20T02:28:19;2.83;;;1.87;;
38117;SDS011;23928;47.562;7.508;2022-11-20T02:30:45;1.83;;;1.50;;
38117;SDS011;23928;47.562;7.508;2022-11-20T02:33:10;2.80;;;1.47;;
38117;SDS011;23928;47.562;7.508;2022-11-20T02:35:41;2.30;;;1.47;;
38117;SDS011;23928;47.562;7.508;2022-11-20T02:38:09;3.60;;;1.50;;
38117;SDS011;23928;47.562;7.508;2022-11-20T02:40:35;2.70;;;1.87;;
38117;SDS011;23928;47.562;7.508;2022-11-20T02:43:00;4.10;;;1.77;;
38117;SDS011;23928;47.562;7.508;2022-11-20T02:45:26;2.03;;;1.60;;
38117;SDS011;23928;47.562;7.508;2022-11-20T02:47:52;2.63;;;1.43;;
38117;SDS011;23928;47.562;7.508;2022-11-20T02:50:18;4.50;;;1.70;;
38117;SDS011;23928;47.562;7.508;2022-11-20T02:52:43;1.63;;;1.50;;
38117;SDS011;23928;47.562;7.508;2022-11-20T02:55:09;2.33;;;1.50;;
38117;SDS011;23928;47.562;7.508;2022-11-20T02:57:35;1.43;;;1.33;;
38117;SDS011;23928;47.562;7.508;2022-11-20T03:00:01;1.57;;;1.20;;
38117;SDS011;23928;47.562;7.508;2022-11-20T03:02:30;2.47;;;1.80;;
38117;SDS011;23928;47.562;7.508;2022-11-20T03:04:56;3.50;;;1.43;;
38117;SDS011;23928;47.562;7.508;2022-11-20T03:07:22;4.03;;;1.80;;
38117;SDS011;23928;47.562;7.508;2022-11-20T03:09:47;2.00;;;1.80;;
38117;SDS011;23928;47.562;7.508;2022-11-20T03:12:13;6.83;;;1.87;;
38117;SDS011;23928;47.562;7.508;2022-11-20T03:14:38;3.97;;;1.50;;
38117;SDS011;23928;47.562;7.508;2022-11-20T03:17:04;2.93;;;1.70;;
38117;SDS011;23928;47.562;7.508;2022-11-20T03:19:30;1.77;;;1.50;;
38117;SDS011;23928;47.562;7.508;2022-11-20T03:21:55;3.07;;;1.90;;
38117;SDS011;23928;47.562;7.508;2022-11-20T03:24:21;2.30;;;1.60;;
38117;SDS011;23928;47.562;7.508;2022-11-20T03:26:47;2.93;;;1.70;;
38117;SDS011;23928;47.562;7.508;2022-11-20T03:29:12;2.17;;;1.60;;
38117;SDS011;23928;47.562;7.508;2022-11-20T03:31:38;3.00;;;2.03;;
38117;SDS011;23928;47.562;7.508;2022-11-20T03:34:06;1.93;;;1.50;;
38117;SDS011;23928;47.562;7.508;2022-11-20T03:36:32;1.93;;;1.60;;
38117;SDS011;23928;47.562;7.508;2022-11-20T03:38:58;2.40;;;1.40;;
38117;SDS011;23928;47.562;7.508;2022-11-20T03:41:25;1.53;;;1.40;;
38117;SDS011;23928;47.562;7.508;2022-11-20T03:43:57;3.17;;;1.40;;
38117;SDS011;23928;47.562;7.508;2022-11-20T03:46:24;4.87;;;1.40;;
38117;SDS011;23928;47.562;7.508;2022-11-20T03:48:50;1.97;;;1.37;;
38117;SDS011;23928;47.562;7.508;2022-11-20T03:51:18;1.77;;;1.23;;
38117;SDS011;23928;47.562;7.508;2022-11-20T03:53:45;2.10;;;1.40;;
38117;SDS011;23928;47.562;7.508;2022-11-20T03:56:13;2.33;;;1.20;;
38117;SDS011;23928;47.562;7.508;2022-11-20T03:58:40;1.17;;;1.10;;
38117;SDS011;23928;47.562;7.508;2022-11-20T04:01:07;1.50;;;1.10;;
38117;SDS011;23928;47.562;7.508;2022-11-20T04:03:42;1.40;;;1.30;;
38117;SDS011;23928;47.562;7.508;2022-11-20T04:06:09;2.60;;;1.00;;
38117;SDS011;23928;47.562;7.508;2022-11-20T04:08:36;1.30;;;1.10;;
38117;SDS011;23928;47.562;7.508;2022-11-20T04:11:09;2.23;;;1.03;;
38117;SDS011;23928;47.562;7.508;2022-11-20T04:13:35;1.37;;;0.73;;
38117;SDS011;23928;47.562;7.508;2022-11-20T04:16:00;1.50;;;0.90;;
38117;SDS011;23928;47.562;7.508;2022-11-20T04:18:26;1.47;;;0.80;;
38117;SDS011;23928;47.562;7.508;2022-11-20T04:20:51;1.03;;;0.90;;
38117;SDS011;23928;47.562;7.508;2022-11-20T04:23:17;1.07;;;0.97;;
38117;SDS011;23928;47.562;7.508;2022-11-20T04:25:43;1.77;;;1.00;;
38117;SDS011;23928;47.562;7.508;2022-11-20T04:28:08;0.90;;;0.80;;
38117;SDS011;23928;47.562;7.508;2022-11-20T04:30:34;1.20;;;1.00;;
38117;SDS011;23928;47.562;7.508;2022-11-20T04:33:00;1.47;;;1.20;;
38117;SDS011;23928;47.562;7.508;2022-11-20T04:35:25;1.60;;;0.90;;
38117;SDS011;23928;47.562;7.508;2022-11-20T04:37:51;1.93;;;1.00;;
38117;SDS011;23928;47.562;7.508;2022-11-20T04:40:17;1.00;;;1.00;;
38117;SDS011;23928;47.562;7.508;2022-11-20T04:42:42;0.90;;;0.90;;
38117;SDS011;23928;47.562;7.508;2022-11-20T04:45:08;0.90;;;0.90;;
38117;SDS011;23928;47.562;7.508;2022-11-20T04:47:34;1.10;;;1.10;;
38117;SDS011;23928;47.562;7.508;2022-11-20T04:49:59;1.10;;;0.90;;
38117;SDS011;23928;47.562;7.508;2022-11-20T04:52:25;3.57;;;1.20;;
38117;SDS011;23928;47.562;7.508;2022-11-20T04:54:51;2.30;;;1.00;;
38117;SDS011;23928;47.562;7.508;2022-11-20T04:57:17;2.30;;;0.90;;
38117;SDS011;23928;47.562;7.508;2022-11-20T04:59:44;1.07;;;1.00;;
38117;SDS011;23928;47.562;7.508;2022-11-20T05:02:09;0.83;;;0.83;;
38117;SDS011;23928;47.562;7.508;2022-11-20T05:04:35;1.03;;;0.90;;
38117;SDS011;23928;47.562;7.508;2022-11-20T05:07:01;0.83;;;0.70;;
38117;SDS011;23928;47.562;7.508;2022-11-20T05:09:27;0.90;;;0.90;;
38117;SDS011;23928;47.562;7.508;2022-11-20T05:11:53;0.83;;;0.83;;
38117;SDS011;23928;47.562;7.508;2022-11-20T05:14:18;1.27;;;0.90;;
38117;SDS011;23928;47.562;7.508;2022-11-20T05:16:44;0.70;;;0.70;;
38117;SDS011;23928;47.562;7.508;2022-11-20T05:19:10;1.37;;;0.80;;
38117;SDS011;23928;47.562;7.508;2022-11-20T05:21:35;2.23;;;0.80;;
38117;SDS011;23928;47.562;7.508;2022-11-20T05:24:01;0.70;;;0.70;;
38117;SDS011;23928;47.562;7.508;2022-11-20T05:26:26;1.10;;;1.00;;
38117;SDS011;23928;47.562;7.508;2022-11-20T05:28:52;1.13;;;1.03;;
38117;SDS011;23928;47.562;7.508;2022-11-20T05:31:19;1.47;;;1.20;;
38117;SDS011;23928;47.562;7.508;2022-11-20T05:33:46;1.57;;;1.10;;
38117;SDS011;23928;47.562;7.508;2022-11-20T05:36:13;1.97;;;1.30;;
38117;SDS011;23928;47.562;7.508;2022-11-20T05:38:39;2.13;;;1.17;;
38117;SDS011;23928;47.562;7.508;2022-11-20T05:43:42;1.50;;;1.40;;
38117;SDS011;23928;47.562;7.508;2022-11-20T05:46:09;1.13;;;1.03;;
38117;SDS011;23928;47.562;7.508;2022-11-20T05:48:37;1.20;;;1.10;;
38117;SDS011;23928;47.562;7.508;2022-11-20T05:51:04;2.17;;;1.03;;
38117;SDS011;23928;47.562;7.508;2022-11-20T05:53:33;1.10;;;0.97;;
38117;SDS011;23928;47.562;7.508;2022-11-20T05:56:03;0.70;;;0.70;;
38117;SDS011;23928;47.562;7.508;2022-11-20T05:58:31;0.90;;;0.90;;
38117;SDS011;23928;47.562;7.508;2022-11-20T06:03:34;0.77;;;0.77;;
38117;SDS011;23928;47.562;7.508;2022-11-20T06:06:00;0.70;;;0.70;;
38117;SDS011;23928;47.562;7.508;2022-11-20T06:08:27;1.43;;;0.90;;
38117;SDS011;23928;47.562;7.508;2022-11-20T06:10:52;0.90;;;0.87;;
38117;SDS011;23928;47.562;7.508;2022-11-20T06:13:18;0.93;;;0.77;;
38117;SDS011;23928;47.562;7.508;2022-11-20T06:15:50;0.90;;;0.90;;
38117;SDS011;23928;47.562;7.508;2022-11-20T06:18:17;2.03;;;0.77;;
38117;SDS011;23928;47.562;7.508;2022-11-20T06:20:42;2.17;;;0.80;;
38117;SDS011;23928;47.562;7.508;2022-11-20T06:23:08;1.13;;;0.80;;
38117;SDS011;23928;47.562;7.508;2022-11-20T06:25:36;0.60;;;0.60;;
38117;SDS011;23928;47.562;7.508;2022-11-20T06:28:03;0.80;;;0.80;;
38117;SDS011;23928;47.562;7.508;2022-11-20T06:30:29;1.47;;;0.97;;
38117;SDS011;23928;47.562;7.508;2022-11-20T06:32:54;1.03;;;0.93;;
38117;SDS011;23928;47.562;7.508;2022-11-20T06:35:20;1.17;;;1.07;;
38117;SDS011;23928;47.562;7.508;2022-11-20T06:37:45;1.37;;;1.07;;
38117;SDS011;23928;47.562;7.508;2022-11-20T06:40:11;0.87;;;0.87;;
38117;SDS011;23928;47.562;7.508;2022-11-20T06:42:37;1.10;;;0.97;;
38117;SDS011;23928;47.562;7.508;2022-11-20T06:45:03;1.20;;;1.07;;
38117;SDS011;23928;47.562;7.508;2022-11-20T06:47:28;0.97;;;0.93;;
38117;SDS011;23928;47.562;7.508;2022-11-20T06:49:54;1.07;;;0.87;;
38117;SDS011;23928;47.562;7.508;2022-11-20T06:52:20;1.23;;;0.80;;
38117;SDS011;23928;47.562;7.508;2022-11-20T06:54:45;1.07;;;0.97;;
38117;SDS011;23928;47.562;7.508;2022-11-20T06:57:11;0.90;;;0.90;;
38117;SDS011;23928;47.562;7.508;2022-11-20T06:59:36;1.13;;;1.03;;
38117;SDS011;23928;47.562;7.508;2022-11-20T07:02:02;2.23;;;1.10;;
38117;SDS011;23928;47.562;7.508;2022-11-20T07:04:27;1.50;;;1.27;;
38117;SDS011;23928;47.562;7.508;2022-11-20T07:06:53;1.23;;;1.13;;
38117;SDS011;23928;47.562;7.508;2022-11-20T07:09:18;2.87;;;1.47;;
38117;SDS011;23928;47.562;7.508;2022-11-20T07:11:44;1.23;;;1.10;;
38117;SDS011;23928;47.562;7.508;2022-11-20T07:14:10;1.90;;;1.50;;
38117;SDS011;23928;47.562;7.508;2022-11-20T07:16:35;1.53;;;1.40;;
38117;SDS011;23928;47.562;7.508;2022-11-20T07:19:01;3.57;;;1.57;;
38117;SDS011;23928;47.562;7.508;2022-11-20T07:21:26;1.87;;;1.50;;
38117;SDS011;23928;47.562;7.508;2022-11-20T07:23:52;2.33;;;1.80;;
38117;SDS011;23928;47.562;7.508;2022-11-20T07:26:17;2.87;;;1.60;;
38117;SDS011;23928;47.562;7.508;2022-11-20T07:28:44;2.80;;;1.60;;
38117;SDS011;23928;47.562;7.508;2022-11-20T07:31:10;1.73;;;1.43;;
38117;SDS011;23928;47.562;7.508;2022-11-20T07:33:36;3.80;;;2.70;;
38117;SDS011;23928;47.562;7.508;2022-11-20T07:36:02;3.23;;;1.93;;
38117;SDS011;23928;47.562;7.508;2022-11-20T07:38:28;5.93;;;4.77;;
38117;SDS011;23928;47.562;7.508;2022-11-20T07:40:54;2.50;;;2.30;;
38117;SDS011;23928;47.562;7.508;2022-11-20T07:43:23;2.47;;;2.27;;
38117;SDS011;23928;47.562;7.508;2022-11-20T07:45:50;4.50;;;3.47;;
38117;SDS011;23928;47.562;7.508;2022-11-20T07:48:15;7.43;;;6.13;;
38117;SDS011;23928;47.562;7.508;2022-11-20T07:50:41;4.17;;;3.20;;
38117;SDS011;23928;47.562;7.508;2022-11-20T07:53:07;3.63;;;2.40;;
38117;SDS011;23928;47.562;7.508;2022-11-20T07:55:32;2.93;;;2.20;;
38117;SDS011;23928;47.562;7.508;2022-11-20T07:57:58;5.30;;;4.10;;
38117;SDS011;23928;47.562;7.508;2022-11-20T08:00:24;7.70;;;6.90;;
38117;SDS011;23928;47.562;7.508;2022-11-20T08:02:51;2.67;;;2.00;;
38117;SDS011;23928;47.562;7.508;2022-11-20T08:05:16;2.13;;;1.90;;
38117;SDS011;23928;47.562;7.508;2022-11-20T08:07:42;3.17;;;2.10;;
38117;SDS011;23928;47.562;7.508;2022-11-20T08:10:09;2.23;;;1.90;;
38117;SDS011;23928;47.562;7.508;2022-11-20T08:12:43;2.10;;;1.90;;
38117;SDS011;23928;47.562;7.508;2022-11-20T08:15:31;4.60;;;4.20;;
38117;SDS011;23928;47.562;7.508;2022-11-20T08:18:03;3.00;;;2.70;;
38117;SDS011;23928;47.562;7.508;2022-11-20T08:20:34;2.77;;;1.90;;
38117;SDS011;23928;47.562;7.508;2022-11-20T08:23:00;3.43;;;1.67;;
38117;SDS011;23928;47.562;7.508;2022-11-20T08:25:28;2.03;;;1.30;;
38117;SDS011;23928;47.562;7.508;2022-11-20T08:27:56;2.43;;;2.10;;
38117;SDS011;23928;47.562;7.508;2022-11-20T08:30:29;4.67;;;2.97;;
38117;SDS011;23928;47.562;7.508;2022-11-20T08:32:54;3.13;;;2.67;;
38117;SDS011;23928;47.562;7.508;2022-11-20T08:35:35;3.83;;;2.40;;
38117;SDS011;23928;47.562;7.508;2022-11-20T08:38:04;4.97;;;4.50;;
38117;SDS011;23928;47.562;7.508;2022-11-20T08:40:31;2.63;;;2.43;;
38117;SDS011;23928;47.562;7.508;2022-11-20T08:42:57;8.00;;;2.70;;
38117;SDS011;23928;47.562;7.508;2022-11-20T08:45:22;2.40;;;2.20;;
38117;SDS011;23928;47.562;7.508;2022-11-20T08:47:48;3.33;;;1.93;;
38117;SDS011;23928;47.562;7.508;2022-11-20T08:50:15;3.50;;;2.30;;
38117;SDS011;23928;47.562;7.508;2022-11-20T08:52:41;2.40;;;1.97;;
38117;SDS011;23928;47.562;7.508;2022-11-20T08:55:07;2.50;;;2.23;;
38117;SDS011;23928;47.562;7.508;2022-11-20T08:57:34;1.60;;;1.50;;
38117;SDS011;23928;47.562;7.508;2022-11-20T09:00:00;3.03;;;1.73;;
38117;SDS011;23928;47.562;7.508;2022-11-20T09:02:28;1.17;;;1.17;;
38117;SDS011;23928;47.562;7.508;2022-11-20T09:04:53;2.03;;;1.23;;
38117;SDS011;23928;47.562;7.508;2022-11-20T09:07:19;2.40;;;1.40;;
38117;SDS011;23928;47.562;7.508;2022-11-20T09:09:45;2.10;;;1.60;;
38117;SDS011;23928;47.562;7.508;2022-11-20T09:12:11;1.83;;;1.40;;
38117;SDS011;23928;47.562;7.508;2022-11-20T09:14:36;1.50;;;1.40;;
38117;SDS011;23928;47.562;7.508;2022-11-20T09:17:02;2.60;;;1.13;;
38117;SDS011;23928;47.562;7.508;2022-11-20T09:19:28;3.33;;;1.20;;
38117;SDS011;23928;47.562;7.508;2022-11-20T09:21:53;4.10;;;1.73;;
38117;SDS011;23928;47.562;7.508;2022-11-20T09:24:19;4.27;;;1.23;;
38117;SDS011;23928;47.562;7.508;2022-11-20T09:26:45;4.00;;;1.40;;
38117;SDS011;23928;47.562;7.508;2022-11-20T09:29:11;2.17;;;1.20;;
38117;SDS011;23928;47.562;7.508;2022-11-20T09:31:37;2.10;;;1.10;;
38117;SDS011;23928;47.562;7.508;2022-11-20T09:34:02;2.07;;;1.10;;
38117;SDS011;23928;47.562;7.508;2022-11-20T09:36:28;1.20;;;1.10;;
38117;SDS011;23928;47.562;7.508;2022-11-20T09:38:54;2.67;;;1.40;;
38117;SDS011;23928;47.562;7.508;2022-11-20T09:44:25;1.53;;;1.20;;
38117;SDS011;23928;47.562;7.508;2022-11-20T09:47:07;1.97;;;1.53;;
38117;SDS011;23928;47.562;7.508;2022-11-20T09:49:38;2.17;;;1.40;;
38117;SDS011;23928;47.562;7.508;2022-11-20T09:54:57;3.13;;;1.43;;
38117;SDS011;23928;47.562;7.508;2022-11-20T09:57:29;2.10;;;1.53;;
38117;SDS011;23928;47.562;7.508;2022-11-20T10:00:02;2.17;;;1.40;;
38117;SDS011;23928;47.562;7.508;2022-11-20T10:02:43;2.77;;;1.30;;
38117;SDS011;23928;47.562;7.508;2022-11-20T10:05:25;2.73;;;1.50;;
38117;SDS011;23928;47.562;7.508;2022-11-20T10:07:53;3.10;;;1.40;;
38117;SDS011;23928;47.562;7.508;2022-11-20T10:13:20;2.00;;;1.50;;
38117;SDS011;23928;47.562;7.508;2022-11-20T10:16:03;2.20;;;1.30;;
38117;SDS011;23928;47.562;7.508;2022-11-20T10:31:43;4.10;;;1.40;;
38117;SDS011;23928;47.562;7.508;2022-11-20T10:34:23;3.03;;;1.90;;
38117;SDS011;23928;47.562;7.508;2022-11-20T10:37:00;2.17;;;1.50;;
38117;SDS011;23928;47.562;7.508;2022-11-20T10:39:40;3.07;;;1.57;;
38117;SDS011;23928;47.562;7.508;2022-11-20T10:42:36;4.67;;;1.43;;
38117;SDS011;23928;47.562;7.508;2022-11-20T10:45:22;2.10;;;1.73;;
38117;SDS011;23928;47.562;7.508;2022-11-20T10:47:53;1.53;;;1.43;;
38117;SDS011;23928;47.562;7.508;2022-11-20T10:50:31;4.40;;;1.50;;
38117;SDS011;23928;47.562;7.508;2022-11-20T10:56:11;3.03;;;1.80;;
38117;SDS011;23928;47.562;7.508;2022-11-20T11:01:43;4.33;;;1.77;;
38117;SDS011;23928;47.562;7.508;2022-11-20T11:04:32;1.63;;;1.50;;
38117;SDS011;23928;47.562;7.508;2022-11-20T11:07:42;3.90;;;1.53;;
38117;SDS011;23928;47.562;7.508;2022-11-20T11:09:55;2.07;;;1.50;;
38117;SDS011;23928;47.562;7.508;2022-11-20T11:12:22;1.50;;;1.33;;
38117;SDS011;23928;47.562;7.508;2022-11-20T11:14:51;1.63;;;1.23;;
38117;SDS011;23928;47.562;7.508;2022-11-20T11:17:28;1.70;;;1.20;;
38117;SDS011;23928;47.562;7.508;2022-11-20T11:20:00;1.50;;;1.00;;
38117;SDS011;23928;47.562;7.508;2022-11-20T11:22:32;1.93;;;0.97;;
38117;SDS011;23928;47.562;7.508;2022-11-20T11:25:09;0.93;;;0.93;;
38117;SDS011;23928;47.562;7.508;2022-11-20T11:27:47;1.37;;;0.90;;
38117;SDS011;23928;47.562;7.508;2022-11-20T11:30:14;1.43;;;0.77;;
38117;SDS011;23928;47.562;7.508;2022-11-20T11:32:42;1.10;;;0.60;;
38117;SDS011;23928;47.562;7.508;2022-11-20T11:35:27;2.03;;;0.90;;
38117;SDS011;23928;47.562;7.508;2022-11-20T11:38:04;0.80;;;0.80;;
38117;SDS011;23928;47.562;7.508;2022-11-20T11:40:32;6.10;;;0.90;;
38117;SDS011;23928;47.562;7.508;2022-11-20T11:43:02;0.90;;;0.63;;
38117;SDS011;23928;47.562;7.508;2022-11-20T11:45:53;0.67;;;0.67;;
38117;SDS011;23928;47.562;7.508;2022-11-20T11:48:19;0.73;;;0.70;;
38117;SDS011;23928;47.562;7.508;2022-11-20T11:50:49;1.73;;;0.90;;
38117;SDS011;23928;47.562;7.508;2022-11-20T11:53:17;1.60;;;0.80;;
38117;SDS011;23928;47.562;7.508;2022-11-20T11:55:49;1.27;;;0.83;;
38117;SDS011;23928;47.562;7.508;2022-11-20T12:06:36;2.70;;;1.47;;
38117;SDS011;23928;47.562;7.508;2022-11-20T12:09:05;2.30;;;0.90;;
38117;SDS011;23928;47.562;7.508;2022-11-20T12:11:38;1.00;;;0.90;;
38117;SDS011;23928;47.562;7.508;2022-11-20T12:16:44;2.70;;;1.27;;
38117;SDS011;23928;47.562;7.508;2022-11-20T12:19:11;1.40;;;1.07;;
38117;SDS011;23928;47.562;7.508;2022-11-20T12:30:17;2.33;;;1.30;;
38117;SDS011;23928;47.562;7.508;2022-11-20T12:40:30;1.37;;;0.60;;
38117;SDS011;23928;47.562;7.508;2022-11-20T12:43:21;1.43;;;0.90;;
38117;SDS011;23928;47.562;7.508;2022-11-20T13:07:27;1.33;;;1.17;;
38117;SDS011;23928;47.562;7.508;2022-11-20T13:09:55;1.80;;;0.90;;
38117;SDS011;23928;47.562;7.508;2022-11-20T13:12:25;1.27;;;1.00;;
38117;SDS011;23928;47.562;7.508;2022-11-20T13:20:04;2.67;;;1.30;;
38117;SDS011;23928;47.562;7.508;2022-11-20T13:22:47;1.23;;;0.97;;
38117;SDS011;23928;47.562;7.508;2022-11-20T13:25:24;2.50;;;0.90;;
38117;SDS011;23928;47.562;7.508;2022-11-20T13:27:51;2.03;;;1.50;;
38117;SDS011;23928;47.562;7.508;2022-11-20T13:30:19;1.20;;;1.10;;
38117;SDS011;23928;47.562;7.508;2022-11-20T13:32:52;1.83;;;1.00;;
38117;SDS011;23928;47.562;7.508;2022-11-20T13:40:29;1.07;;;0.93;;
38117;SDS011;23928;47.562;7.508;2022-11-20T13:43:02;0.90;;;0.90;;
38117;SDS011;23928;47.562;7.508;2022-11-20T13:45:35;1.23;;;0.60;;
38117;SDS011;23928;47.562;7.508;2022-11-20T13:48:04;1.07;;;0.83;;
38117;SDS011;23928;47.562;7.508;2022-11-20T13:50:59;1.17;;;0.73;;
38117;SDS011;23928;47.562;7.508;2022-11-20T13:59:13;0.73;;;0.70;;
38117;SDS011;23928;47.562;7.508;2022-11-20T14:02:13;0.80;;;0.80;;
38117;SDS011;23928;47.562;7.508;2022-11-20T14:04:50;0.63;;;0.50;;
38117;SDS011;23928;47.562;7.508;2022-11-20T14:07:18;0.97;;;0.73;;
38117;SDS011;23928;47.562;7.508;2022-11-20T14:09:54;0.50;;;0.50;;
38117;SDS011;23928;47.562;7.508;2022-11-20T14:12:22;0.83;;;0.70;;
38117;SDS011;23928;47.562;7.508;2022-11-20T14:14:58;0.70;;;0.70;;
38117;SDS011;23928;47.562;7.508;2022-11-20T14:17:30;1.27;;;1.17;;
38117;SDS011;23928;47.562;7.508;2022-11-20T14:20:07;1.63;;;1.00;;
38117;SDS011;23928;47.562;7.508;2022-11-20T14:22:39;0.80;;;0.80;;
38117;SDS011;23928;47.562;7.508;2022-11-20T14:27:39;1.33;;;1.10;;
38117;SDS011;23928;47.562;7.508;2022-11-20T14:30:16;1.47;;;1.13;;
38117;SDS011;23928;47.562;7.508;2022-11-20T14:32:43;0.60;;;0.60;;
38117;SDS011;23928;47.562;7.508;2022-11-20T14:38:11;2.00;;;1.10;;
38117;SDS011;23928;47.562;7.508;2022-11-20T14:40:38;1.57;;;1.00;;
38117;SDS011;23928;47.562;7.508;2022-11-20T14:45:45;1.20;;;0.90;;
38117;SDS011;23928;47.562;7.508;2022-11-20T14:48:13;0.90;;;0.90;;
38117;SDS011;23928;47.562;7.508;2022-11-20T14:50:40;1.67;;;1.03;;
38117;SDS011;23928;47.562;7.508;2022-11-20T14:53:06;2.10;;;1.10;;
38117;SDS011;23928;47.562;7.508;2022-11-20T14:55:38;0.77;;;0.60;;
38117;SDS011;23928;47.562;7.508;2022-11-20T14:58:26;2.30;;;0.90;;
38117;SDS011;23928;47.562;7.508;2022-11-20T15:00:55;0.70;;;0.63;;
38117;SDS011;23928;47.562;7.508;2022-11-20T15:03:23;0.80;;;0.80;;
38117;SDS011;23928;47.562;7.508;2022-11-20T15:05:59;0.87;;;0.60;;
38117;SDS011;23928;47.562;7.508;2022-11-20T15:08:25;0.93;;;0.90;;
38117;SDS011;23928;47.562;7.508;2022-11-20T15:10:51;1.70;;;1.10;;
38117;SDS011;23928;47.562;7.508;2022-11-20T15:13:37;0.83;;;0.60;;
38117;SDS011;23928;47.562;7.508;2022-11-20T15:16:08;1.90;;;0.80;;
38117;SDS011;23928;47.562;7.508;2022-11-20T15:18:46;0.73;;;0.63;;
38117;SDS011;23928;47.562;7.508;2022-11-20T15:21:13;0.97;;;0.60;;
38117;SDS011;23928;47.562;7.508;2022-11-20T15:23:43;1.03;;;0.77;;
38117;SDS011;23928;47.562;7.508;2022-11-20T15:26:10;1.23;;;0.90;;
38117;SDS011;23928;47.562;7.508;2022-11-20T15:28:43;1.23;;;0.63;;
38117;SDS011;23928;47.562;7.508;2022-11-20T15:31:16;0.97;;;0.80;;
38117;SDS011;23928;47.562;7.508;2022-11-20T15:33:43;0.70;;;0.70;;
38117;SDS011;23928;47.562;7.508;2022-11-20T15:36:09;3.20;;;1.20;;
38117;SDS011;23928;47.562;7.508;2022-11-20T15:38:35;1.13;;;1.00;;
38117;SDS011;23928;47.562;7.508;2022-11-20T15:41:01;3.10;;;0.77;;
38117;SDS011;23928;47.562;7.508;2022-11-20T15:43:27;1.03;;;1.00;;
38117;SDS011;23928;47.562;7.508;2022-11-20T15:45:56;1.67;;;1.10;;
38117;SDS011;23928;47.562;7.508;2022-11-20T15:48:35;2.03;;;1.40;;
38117;SDS011;23928;47.562;7.508;2022-11-20T15:51:12;2.70;;;1.33;;
38117;SDS011;23928;47.562;7.508;2022-11-20T15:53:44;1.20;;;1.10;;
38117;SDS011;23928;47.562;7.508;2022-11-20T15:56:13;1.93;;;1.23;;
38117;SDS011;23928;47.562;7.508;2022-11-20T15:58:39;1.67;;;1.30;;
38117;SDS011;23928;47.562;7.508;2022-11-20T16:01:08;1.70;;;1.00;;
38117;SDS011;23928;47.562;7.508;2022-11-20T16:03:38;3.00;;;1.13;;
38117;SDS011;23928;47.562;7.508;2022-11-20T16:06:04;0.90;;;0.90;;
38117;SDS011;23928;47.562;7.508;2022-11-20T16:08:30;1.47;;;0.87;;
38117;SDS011;23928;47.562;7.508;2022-11-20T16:10:55;0.80;;;0.80;;
38117;SDS011;23928;47.562;7.508;2022-11-20T16:13:21;1.20;;;1.10;;
38117;SDS011;23928;47.562;7.508;2022-11-20T16:16:06;1.00;;;0.90;;
38117;SDS011;23928;47.562;7.508;2022-11-20T16:18:36;0.90;;;0.80;;
38117;SDS011;23928;47.562;7.508;2022-11-20T16:21:02;1.80;;;1.13;;
38117;SDS011;23928;47.562;7.508;2022-11-20T16:23:28;1.33;;;0.90;;
38117;SDS011;23928;47.562;7.508;2022-11-20T16:25:53;0.80;;;0.80;;
38117;SDS011;23928;47.562;7.508;2022-11-20T16:28:19;2.37;;;1.00;;
38117;SDS011;23928;47.562;7.508;2022-11-20T16:30:45;1.47;;;1.20;;
38117;SDS011;23928;47.562;7.508;2022-11-20T16:33:12;2.43;;;1.50;;
38117;SDS011;23928;47.562;7.508;2022-11-20T16:35:42;3.83;;;2.30;;
38117;SDS011;23928;47.562;7.508;2022-11-20T16:38:07;3.13;;;2.57;;
38117;SDS011;23928;47.562;7.508;2022-11-20T16:40:34;4.63;;;2.50;;
38117;SDS011;23928;47.562;7.508;2022-11-20T16:43:06;4.20;;;2.43;;
38117;SDS011;23928;47.562;7.508;2022-11-20T16:45:34;2.93;;;2.33;;
38117;SDS011;23928;47.562;7.508;2022-11-20T16:48:04;3.07;;;2.20;;
38117;SDS011;23928;47.562;7.508;2022-11-20T16:50:30;3.47;;;2.43;;